sensor_id;sensor_type;location;lat;lon;timestamp;P1;durP1;ratioP1;P2;durP2;ratioP2
85067;SDS011;75403;44.574;2.080;2024-02-28T00:00:13;3.65;;;2.00;;
85067;SDS011;75403;44.574;2.080;2024-02-28T00:02:39;4.00;;;1.98;;
85067;SDS011;75403;44.574;2.080;2024-02-28T00:05:05;4.00;;;2.10;;
85067;SDS011;75403;44.574;2.080;2024-02-28T00:07:31;4.70;;;2.10;;
85067;SDS011;75403;44.574;2.080;2024-02-28T00:09:57;4.05;;;2.15;;
85067;SDS011;75403;44.574;2.080;2024-02-28T00:12:24;4.23;;;2.07;;
85067;SDS011;75403;44.574;2.080;2024-02-28T00:14:51;4.23;;;2.00;;
85067;SDS011;75403;44.574;2.080;2024-02-28T00:17:17;4.43;;;2.20;;
85067;SDS011;75403;44.574;2.080;2024-02-28T00:19:43;4.90;;;2.20;;
85067;SDS011;75403;44.574;2.080;2024-02-28T00:22:09;4.20;;;2.00;;
85067;SDS011;75403;44.574;2.080;2024-02-28T00:24:35;4.22;;;2.20;;
85067;SDS011;75403;44.574;2.080;2024-02-28T00:27:01;4.55;;;2.20;;
85067;SDS011;75403;44.574;2.080;2024-02-28T00:29:27;4.77;;;2.30;;
85067;SDS011;75403;44.574;2.080;2024-02-28T00:31:53;5.07;;;2.15;;
85067;SDS011;75403;44.574;2.080;2024-02-28T00:34:19;4.30;;;2.22;;
85067;SDS011;75403;44.574;2.080;2024-02-28T00:36:45;4.97;;;2.10;;
85067;SDS011;75403;44.574;2.080;2024-02-28T00:39:11;4.18;;;2.13;;
85067;SDS011;75403;44.574;2.080;2024-02-28T00:41:37;3.65;;;1.90;;
85067;SDS011;75403;44.574;2.080;2024-02-28T00:44:03;4.70;;;2.20;;
85067;SDS011;75403;44.574;2.080;2024-02-28T00:46:29;4.05;;;1.83;;
85067;SDS011;75403;44.574;2.080;2024-02-28T00:48:55;4.70;;;2.30;;
85067;SDS011;75403;44.574;2.080;2024-02-28T00:51:21;4.90;;;2.20;;
85067;SDS011;75403;44.574;2.080;2024-02-28T00:53:47;5.20;;;2.20;;
85067;SDS011;75403;44.574;2.080;2024-02-28T00:56:13;4.53;;;2.05;;
85067;SDS011;75403;44.574;2.080;2024-02-28T00:58:39;4.25;;;2.20;;
85067;SDS011;75403;44.574;2.080;2024-02-28T01:01:05;4.40;;;2.20;;
85067;SDS011;75403;44.574;2.080;2024-02-28T01:03:32;4.10;;;2.05;;
85067;SDS011;75403;44.574;2.080;2024-02-28T01:05:58;4.27;;;2.10;;
85067;SDS011;75403;44.574;2.080;2024-02-28T01:08:26;4.55;;;2.10;;
85067;SDS011;75403;44.574;2.080;2024-02-28T01:10:52;4.32;;;2.28;;
85067;SDS011;75403;44.574;2.080;2024-02-28T01:13:18;4.20;;;1.92;;
85067;SDS011;75403;44.574;2.080;2024-02-28T01:15:44;4.03;;;2.20;;
85067;SDS011;75403;44.574;2.080;2024-02-28T01:18:10;4.53;;;2.03;;
85067;SDS011;75403;44.574;2.080;2024-02-28T01:20:36;3.93;;;2.00;;
85067;SDS011;75403;44.574;2.080;2024-02-28T01:23:02;4.32;;;1.95;;
85067;SDS011;75403;44.574;2.080;2024-02-28T01:25:28;4.43;;;2.22;;
85067;SDS011;75403;44.574;2.080;2024-02-28T01:27:55;4.03;;;1.92;;
85067;SDS011;75403;44.574;2.080;2024-02-28T01:30:23;3.93;;;1.97;;
85067;SDS011;75403;44.574;2.080;2024-02-28T01:32:49;5.43;;;2.00;;
85067;SDS011;75403;44.574;2.080;2024-02-28T01:35:15;3.97;;;1.92;;
85067;SDS011;75403;44.574;2.080;2024-02-28T01:37:41;4.47;;;2.20;;
85067;SDS011;75403;44.574;2.080;2024-02-28T01:40:07;4.35;;;2.00;;
85067;SDS011;75403;44.574;2.080;2024-02-28T01:42:33;4.65;;;2.10;;
85067;SDS011;75403;44.574;2.080;2024-02-28T01:44:59;4.45;;;2.05;;
85067;SDS011;75403;44.574;2.080;2024-02-28T01:47:25;4.20;;;2.00;;
85067;SDS011;75403;44.574;2.080;2024-02-28T01:49:51;4.28;;;2.10;;
85067;SDS011;75403;44.574;2.080;2024-02-28T01:52:19;4.25;;;2.15;;
85067;SDS011;75403;44.574;2.080;2024-02-28T01:54:46;4.30;;;2.20;;
85067;SDS011;75403;44.574;2.080;2024-02-28T01:57:12;3.97;;;2.10;;
85067;SDS011;75403;44.574;2.080;2024-02-28T01:59:39;4.70;;;1.95;;
85067;SDS011;75403;44.574;2.080;2024-02-28T02:02:05;4.00;;;1.85;;
85067;SDS011;75403;44.574;2.080;2024-02-28T02:04:32;4.28;;;2.08;;
85067;SDS011;75403;44.574;2.080;2024-02-28T02:06:58;4.13;;;1.90;;
85067;SDS011;75403;44.574;2.080;2024-02-28T02:09:25;4.10;;;1.90;;
85067;SDS011;75403;44.574;2.080;2024-02-28T02:11:51;4.13;;;2.10;;
85067;SDS011;75403;44.574;2.080;2024-02-28T02:14:17;4.90;;;2.08;;
85067;SDS011;75403;44.574;2.080;2024-02-28T02:16:44;4.75;;;2.10;;
85067;SDS011;75403;44.574;2.080;2024-02-28T02:19:10;3.97;;;1.90;;
85067;SDS011;75403;44.574;2.080;2024-02-28T02:21:41;4.70;;;1.98;;
85067;SDS011;75403;44.574;2.080;2024-02-28T02:24:07;4.15;;;1.95;;
85067;SDS011;75403;44.574;2.080;2024-02-28T02:26:33;3.93;;;1.97;;
85067;SDS011;75403;44.574;2.080;2024-02-28T02:28:59;4.07;;;1.80;;
85067;SDS011;75403;44.574;2.080;2024-02-28T02:31:25;4.30;;;2.00;;
85067;SDS011;75403;44.574;2.080;2024-02-28T02:33:51;3.88;;;2.10;;
85067;SDS011;75403;44.574;2.080;2024-02-28T02:36:17;3.60;;;1.85;;
85067;SDS011;75403;44.574;2.080;2024-02-28T02:38:43;4.03;;;1.90;;
85067;SDS011;75403;44.574;2.080;2024-02-28T02:41:09;4.20;;;1.98;;
85067;SDS011;75403;44.574;2.080;2024-02-28T02:43:35;4.32;;;1.90;;
85067;SDS011;75403;44.574;2.080;2024-02-28T02:46:01;3.53;;;1.88;;
85067;SDS011;75403;44.574;2.080;2024-02-28T02:48:27;4.18;;;2.10;;
85067;SDS011;75403;44.574;2.080;2024-02-28T02:50:53;3.95;;;1.77;;
85067;SDS011;75403;44.574;2.080;2024-02-28T02:53:19;3.70;;;2.00;;
85067;SDS011;75403;44.574;2.080;2024-02-28T02:55:46;4.10;;;1.87;;
85067;SDS011;75403;44.574;2.080;2024-02-28T02:58:12;4.18;;;1.90;;
85067;SDS011;75403;44.574;2.080;2024-02-28T03:00:38;3.75;;;2.03;;
85067;SDS011;75403;44.574;2.080;2024-02-28T03:03:04;4.03;;;1.90;;
85067;SDS011;75403;44.574;2.080;2024-02-28T03:05:30;3.70;;;1.90;;
85067;SDS011;75403;44.574;2.080;2024-02-28T03:07:56;5.05;;;2.00;;
85067;SDS011;75403;44.574;2.080;2024-02-28T03:10:22;4.22;;;2.10;;
85067;SDS011;75403;44.574;2.080;2024-02-28T03:12:48;4.20;;;1.90;;
85067;SDS011;75403;44.574;2.080;2024-02-28T03:15:14;3.90;;;1.90;;
85067;SDS011;75403;44.574;2.080;2024-02-28T03:17:41;4.40;;;2.00;;
85067;SDS011;75403;44.574;2.080;2024-02-28T03:20:07;4.35;;;1.92;;
85067;SDS011;75403;44.574;2.080;2024-02-28T03:22:33;3.83;;;1.87;;
85067;SDS011;75403;44.574;2.080;2024-02-28T03:24:59;3.90;;;1.80;;
85067;SDS011;75403;44.574;2.080;2024-02-28T03:27:25;4.00;;;1.92;;
85067;SDS011;75403;44.574;2.080;2024-02-28T03:29:51;4.18;;;1.90;;
85067;SDS011;75403;44.574;2.080;2024-02-28T03:32:17;4.05;;;1.90;;
85067;SDS011;75403;44.574;2.080;2024-02-28T03:34:43;4.45;;;2.05;;
85067;SDS011;75403;44.574;2.080;2024-02-28T03:37:09;3.50;;;1.58;;
85067;SDS011;75403;44.574;2.080;2024-02-28T03:39:35;4.05;;;1.98;;
85067;SDS011;75403;44.574;2.080;2024-02-28T03:42:01;3.77;;;1.80;;
85067;SDS011;75403;44.574;2.080;2024-02-28T03:44:28;4.30;;;1.90;;
85067;SDS011;75403;44.574;2.080;2024-02-28T03:46:54;4.00;;;1.90;;
85067;SDS011;75403;44.574;2.080;2024-02-28T03:49:20;5.55;;;1.80;;
85067;SDS011;75403;44.574;2.080;2024-02-28T03:51:46;3.80;;;1.90;;
85067;SDS011;75403;44.574;2.080;2024-02-28T03:54:12;4.20;;;1.90;;
85067;SDS011;75403;44.574;2.080;2024-02-28T03:56:38;3.60;;;1.80;;
85067;SDS011;75403;44.574;2.080;2024-02-28T03:59:04;4.55;;;1.90;;
85067;SDS011;75403;44.574;2.080;2024-02-28T04:01:30;7.82;;;2.10;;
85067;SDS011;75403;44.574;2.080;2024-02-28T04:03:56;3.58;;;1.77;;
85067;SDS011;75403;44.574;2.080;2024-02-28T04:06:22;5.20;;;1.90;;
85067;SDS011;75403;44.574;2.080;2024-02-28T04:08:48;4.68;;;1.85;;
85067;SDS011;75403;44.574;2.080;2024-02-28T04:11:14;4.18;;;1.88;;
85067;SDS011;75403;44.574;2.080;2024-02-28T04:13:40;3.97;;;2.00;;
85067;SDS011;75403;44.574;2.080;2024-02-28T04:16:07;4.82;;;2.05;;
85067;SDS011;75403;44.574;2.080;2024-02-28T04:18:33;3.58;;;1.80;;
85067;SDS011;75403;44.574;2.080;2024-02-28T04:20:59;4.18;;;2.00;;
85067;SDS011;75403;44.574;2.080;2024-02-28T04:23:25;4.15;;;2.00;;
85067;SDS011;75403;44.574;2.080;2024-02-28T04:25:51;4.40;;;2.00;;
85067;SDS011;75403;44.574;2.080;2024-02-28T04:28:17;4.00;;;1.90;;
85067;SDS011;75403;44.574;2.080;2024-02-28T04:30:43;3.83;;;1.80;;
85067;SDS011;75403;44.574;2.080;2024-02-28T04:33:09;4.30;;;2.20;;
85067;SDS011;75403;44.574;2.080;2024-02-28T04:35:35;4.55;;;2.20;;
85067;SDS011;75403;44.574;2.080;2024-02-28T04:38:02;4.28;;;2.10;;
85067;SDS011;75403;44.574;2.080;2024-02-28T04:40:28;4.93;;;2.10;;
85067;SDS011;75403;44.574;2.080;2024-02-28T04:42:54;4.20;;;2.10;;
85067;SDS011;75403;44.574;2.080;2024-02-28T04:45:20;4.13;;;2.10;;
85067;SDS011;75403;44.574;2.080;2024-02-28T04:47:46;4.23;;;2.20;;
85067;SDS011;75403;44.574;2.080;2024-02-28T04:50:12;3.85;;;1.95;;
85067;SDS011;75403;44.574;2.080;2024-02-28T04:52:38;4.68;;;2.10;;
85067;SDS011;75403;44.574;2.080;2024-02-28T04:55:04;4.68;;;2.10;;
85067;SDS011;75403;44.574;2.080;2024-02-28T04:57:30;3.88;;;2.00;;
85067;SDS011;75403;44.574;2.080;2024-02-28T04:59:56;4.35;;;2.20;;
85067;SDS011;75403;44.574;2.080;2024-02-28T05:02:22;4.28;;;2.20;;
85067;SDS011;75403;44.574;2.080;2024-02-28T05:04:50;4.72;;;2.10;;
85067;SDS011;75403;44.574;2.080;2024-02-28T05:07:16;4.18;;;2.22;;
85067;SDS011;75403;44.574;2.080;2024-02-28T05:09:42;4.38;;;2.10;;
85067;SDS011;75403;44.574;2.080;2024-02-28T05:12:08;3.88;;;2.10;;
85067;SDS011;75403;44.574;2.080;2024-02-28T05:14:36;4.20;;;2.22;;
85067;SDS011;75403;44.574;2.080;2024-02-28T05:17:02;6.00;;;2.30;;
85067;SDS011;75403;44.574;2.080;2024-02-28T05:19:29;4.70;;;2.33;;
85067;SDS011;75403;44.574;2.080;2024-02-28T05:21:56;4.43;;;2.10;;
85067;SDS011;75403;44.574;2.080;2024-02-28T05:24:22;4.05;;;2.15;;
85067;SDS011;75403;44.574;2.080;2024-02-28T05:26:48;4.80;;;2.38;;
85067;SDS011;75403;44.574;2.080;2024-02-28T05:29:14;4.35;;;2.20;;
85067;SDS011;75403;44.574;2.080;2024-02-28T05:31:40;5.03;;;2.20;;
85067;SDS011;75403;44.574;2.080;2024-02-28T05:34:06;4.00;;;2.30;;
85067;SDS011;75403;44.574;2.080;2024-02-28T05:36:32;4.80;;;2.20;;
85067;SDS011;75403;44.574;2.080;2024-02-28T05:38:59;4.32;;;2.20;;
85067;SDS011;75403;44.574;2.080;2024-02-28T05:41:26;4.20;;;2.07;;
85067;SDS011;75403;44.574;2.080;2024-02-28T05:43:52;5.05;;;2.15;;
85067;SDS011;75403;44.574;2.080;2024-02-28T05:46:18;4.82;;;2.38;;
85067;SDS011;75403;44.574;2.080;2024-02-28T05:48:47;4.10;;;2.10;;
85067;SDS011;75403;44.574;2.080;2024-02-28T05:51:13;4.00;;;2.20;;
85067;SDS011;75403;44.574;2.080;2024-02-28T05:53:39;4.60;;;2.20;;
85067;SDS011;75403;44.574;2.080;2024-02-28T05:56:06;5.30;;;2.50;;
85067;SDS011;75403;44.574;2.080;2024-02-28T05:58:38;4.95;;;2.40;;
85067;SDS011;75403;44.574;2.080;2024-02-28T06:01:04;4.50;;;2.38;;
85067;SDS011;75403;44.574;2.080;2024-02-28T06:03:32;5.28;;;2.50;;
85067;SDS011;75403;44.574;2.080;2024-02-28T06:05:59;4.63;;;2.47;;
85067;SDS011;75403;44.574;2.080;2024-02-28T06:08:25;4.13;;;2.13;;
85067;SDS011;75403;44.574;2.080;2024-02-28T06:10:51;4.97;;;2.45;;
85067;SDS011;75403;44.574;2.080;2024-02-28T06:13:17;6.80;;;2.30;;
85067;SDS011;75403;44.574;2.080;2024-02-28T06:15:43;6.10;;;2.70;;
85067;SDS011;75403;44.574;2.080;2024-02-28T06:18:09;6.60;;;2.60;;
85067;SDS011;75403;44.574;2.080;2024-02-28T06:20:36;6.40;;;2.38;;
85067;SDS011;75403;44.574;2.080;2024-02-28T06:23:02;5.38;;;2.60;;
85067;SDS011;75403;44.574;2.080;2024-02-28T06:25:28;7.15;;;2.55;;
85067;SDS011;75403;44.574;2.080;2024-02-28T06:27:54;8.52;;;2.50;;
85067;SDS011;75403;44.574;2.080;2024-02-28T06:30:20;6.00;;;2.50;;
85067;SDS011;75403;44.574;2.080;2024-02-28T06:32:46;9.23;;;2.60;;
85067;SDS011;75403;44.574;2.080;2024-02-28T06:35:12;6.82;;;2.55;;
85067;SDS011;75403;44.574;2.080;2024-02-28T06:37:38;5.17;;;2.50;;
85067;SDS011;75403;44.574;2.080;2024-02-28T06:40:04;7.38;;;2.55;;
85067;SDS011;75403;44.574;2.080;2024-02-28T06:42:33;8.57;;;2.60;;
85067;SDS011;75403;44.574;2.080;2024-02-28T06:45:01;10.20;;;2.45;;
85067;SDS011;75403;44.574;2.080;2024-02-28T06:47:29;5.53;;;2.40;;
85067;SDS011;75403;44.574;2.080;2024-02-28T06:49:57;6.80;;;2.50;;
85067;SDS011;75403;44.574;2.080;2024-02-28T06:52:23;5.53;;;2.40;;
85067;SDS011;75403;44.574;2.080;2024-02-28T06:54:49;7.88;;;2.60;;
85067;SDS011;75403;44.574;2.080;2024-02-28T06:57:16;4.93;;;2.50;;
85067;SDS011;75403;44.574;2.080;2024-02-28T06:59:42;6.95;;;2.60;;
85067;SDS011;75403;44.574;2.080;2024-02-28T07:02:08;8.10;;;2.40;;
85067;SDS011;75403;44.574;2.080;2024-02-28T07:04:34;5.90;;;2.30;;
85067;SDS011;75403;44.574;2.080;2024-02-28T07:07:00;7.00;;;2.58;;
85067;SDS011;75403;44.574;2.080;2024-02-28T07:09:26;5.10;;;2.40;;
85067;SDS011;75403;44.574;2.080;2024-02-28T07:11:56;6.05;;;2.30;;
85067;SDS011;75403;44.574;2.080;2024-02-28T07:14:22;6.60;;;2.60;;
85067;SDS011;75403;44.574;2.080;2024-02-28T07:16:48;7.25;;;2.40;;
85067;SDS011;75403;44.574;2.080;2024-02-28T07:19:14;4.68;;;2.22;;
85067;SDS011;75403;44.574;2.080;2024-02-28T07:21:40;5.40;;;2.38;;
85067;SDS011;75403;44.574;2.080;2024-02-28T07:24:06;4.45;;;2.30;;
85067;SDS011;75403;44.574;2.080;2024-02-28T07:26:32;6.15;;;2.60;;
85067;SDS011;75403;44.574;2.080;2024-02-28T07:28:58;5.23;;;2.43;;
85067;SDS011;75403;44.574;2.080;2024-02-28T07:31:25;5.50;;;2.45;;
85067;SDS011;75403;44.574;2.080;2024-02-28T07:33:51;6.30;;;2.40;;
85067;SDS011;75403;44.574;2.080;2024-02-28T07:36:17;6.20;;;2.60;;
85067;SDS011;75403;44.574;2.080;2024-02-28T07:38:43;6.15;;;2.35;;
85067;SDS011;75403;44.574;2.080;2024-02-28T07:41:09;7.10;;;2.53;;
85067;SDS011;75403;44.574;2.080;2024-02-28T07:43:35;5.50;;;2.40;;
85067;SDS011;75403;44.574;2.080;2024-02-28T07:46:07;5.03;;;2.45;;
85067;SDS011;75403;44.574;2.080;2024-02-28T07:48:34;4.90;;;2.35;;
85067;SDS011;75403;44.574;2.080;2024-02-28T07:51:00;4.15;;;2.20;;
85067;SDS011;75403;44.574;2.080;2024-02-28T07:53:26;4.70;;;2.25;;
85067;SDS011;75403;44.574;2.080;2024-02-28T07:55:52;6.32;;;2.40;;
85067;SDS011;75403;44.574;2.080;2024-02-28T07:58:18;5.70;;;2.40;;
85067;SDS011;75403;44.574;2.080;2024-02-28T08:00:44;5.10;;;2.40;;
85067;SDS011;75403;44.574;2.080;2024-02-28T08:03:10;5.90;;;2.30;;
85067;SDS011;75403;44.574;2.080;2024-02-28T08:05:37;5.35;;;2.30;;
85067;SDS011;75403;44.574;2.080;2024-02-28T08:08:08;4.93;;;2.30;;
85067;SDS011;75403;44.574;2.080;2024-02-28T08:10:34;5.10;;;2.40;;
85067;SDS011;75403;44.574;2.080;2024-02-28T08:13:00;4.88;;;2.38;;
85067;SDS011;75403;44.574;2.080;2024-02-28T08:15:27;4.88;;;2.40;;
85067;SDS011;75403;44.574;2.080;2024-02-28T08:17:53;4.30;;;2.00;;
85067;SDS011;75403;44.574;2.080;2024-02-28T08:20:19;4.77;;;2.33;;
85067;SDS011;75403;44.574;2.080;2024-02-28T08:22:45;6.20;;;2.40;;
85067;SDS011;75403;44.574;2.080;2024-02-28T08:25:11;5.93;;;2.20;;
85067;SDS011;75403;44.574;2.080;2024-02-28T08:27:38;4.57;;;2.40;;
85067;SDS011;75403;44.574;2.080;2024-02-28T08:30:04;5.22;;;2.10;;
85067;SDS011;75403;44.574;2.080;2024-02-28T08:32:31;4.90;;;2.40;;
85067;SDS011;75403;44.574;2.080;2024-02-28T08:34:57;4.32;;;2.20;;
85067;SDS011;75403;44.574;2.080;2024-02-28T08:37:23;5.35;;;2.10;;
85067;SDS011;75403;44.574;2.080;2024-02-28T08:39:50;4.05;;;2.20;;
85067;SDS011;75403;44.574;2.080;2024-02-28T08:42:16;5.78;;;2.30;;
85067;SDS011;75403;44.574;2.080;2024-02-28T08:44:42;4.13;;;2.00;;
85067;SDS011;75403;44.574;2.080;2024-02-28T08:47:08;7.45;;;2.40;;
85067;SDS011;75403;44.574;2.080;2024-02-28T08:49:36;4.85;;;2.30;;
85067;SDS011;75403;44.574;2.080;2024-02-28T08:52:04;5.10;;;2.10;;
85067;SDS011;75403;44.574;2.080;2024-02-28T08:54:30;4.57;;;2.20;;
85067;SDS011;75403;44.574;2.080;2024-02-28T08:56:56;4.88;;;2.33;;
85067;SDS011;75403;44.574;2.080;2024-02-28T08:59:22;4.40;;;2.17;;
85067;SDS011;75403;44.574;2.080;2024-02-28T09:01:48;4.85;;;2.20;;
85067;SDS011;75403;44.574;2.080;2024-02-28T09:04:14;4.70;;;2.38;;
85067;SDS011;75403;44.574;2.080;2024-02-28T09:06:40;4.45;;;2.00;;
85067;SDS011;75403;44.574;2.080;2024-02-28T09:09:06;5.00;;;2.20;;
85067;SDS011;75403;44.574;2.080;2024-02-28T09:11:32;4.50;;;2.13;;
85067;SDS011;75403;44.574;2.080;2024-02-28T09:13:59;4.13;;;2.00;;
85067;SDS011;75403;44.574;2.080;2024-02-28T09:16:25;5.70;;;2.33;;
85067;SDS011;75403;44.574;2.080;2024-02-28T09:18:51;4.50;;;2.13;;
85067;SDS011;75403;44.574;2.080;2024-02-28T09:21:17;4.75;;;2.28;;
85067;SDS011;75403;44.574;2.080;2024-02-28T09:23:43;4.30;;;2.00;;
85067;SDS011;75403;44.574;2.080;2024-02-28T09:26:09;4.28;;;2.10;;
85067;SDS011;75403;44.574;2.080;2024-02-28T09:28:35;5.57;;;2.10;;
85067;SDS011;75403;44.574;2.080;2024-02-28T09:31:01;5.20;;;2.03;;
85067;SDS011;75403;44.574;2.080;2024-02-28T09:33:28;4.80;;;2.15;;
85067;SDS011;75403;44.574;2.080;2024-02-28T09:35:54;4.15;;;1.90;;
85067;SDS011;75403;44.574;2.080;2024-02-28T09:38:20;4.25;;;2.10;;
85067;SDS011;75403;44.574;2.080;2024-02-28T09:40:46;4.47;;;1.97;;
85067;SDS011;75403;44.574;2.080;2024-02-28T09:43:18;4.05;;;1.88;;
85067;SDS011;75403;44.574;2.080;2024-02-28T09:45:45;4.90;;;2.03;;
85067;SDS011;75403;44.574;2.080;2024-02-28T09:48:11;4.22;;;2.00;;
85067;SDS011;75403;44.574;2.080;2024-02-28T09:50:38;4.50;;;2.10;;
85067;SDS011;75403;44.574;2.080;2024-02-28T09:53:04;4.50;;;2.10;;
85067;SDS011;75403;44.574;2.080;2024-02-28T09:55:30;4.15;;;2.00;;
85067;SDS011;75403;44.574;2.080;2024-02-28T09:57:57;4.63;;;2.00;;
85067;SDS011;75403;44.574;2.080;2024-02-28T10:00:23;4.50;;;2.00;;
85067;SDS011;75403;44.574;2.080;2024-02-28T10:02:50;4.80;;;2.13;;
85067;SDS011;75403;44.574;2.080;2024-02-28T10:05:17;4.47;;;1.80;;
85067;SDS011;75403;44.574;2.080;2024-02-28T10:07:45;4.13;;;1.80;;
85067;SDS011;75403;44.574;2.080;2024-02-28T10:10:12;4.38;;;1.88;;
85067;SDS011;75403;44.574;2.080;2024-02-28T10:12:41;4.18;;;1.90;;
85067;SDS011;75403;44.574;2.080;2024-02-28T10:15:08;3.97;;;1.90;;
85067;SDS011;75403;44.574;2.080;2024-02-28T10:17:35;4.30;;;1.90;;
85067;SDS011;75403;44.574;2.080;2024-02-28T10:20:01;3.80;;;1.95;;
85067;SDS011;75403;44.574;2.080;2024-02-28T10:22:33;3.70;;;1.80;;
85067;SDS011;75403;44.574;2.080;2024-02-28T10:25:00;3.43;;;1.70;;
85067;SDS011;75403;44.574;2.080;2024-02-28T10:27:26;4.50;;;2.10;;
85067;SDS011;75403;44.574;2.080;2024-02-28T10:29:52;3.97;;;1.92;;
85067;SDS011;75403;44.574;2.080;2024-02-28T10:32:18;5.57;;;2.00;;
85067;SDS011;75403;44.574;2.080;2024-02-28T10:34:44;4.10;;;1.90;;
85067;SDS011;75403;44.574;2.080;2024-02-28T10:37:11;3.92;;;1.80;;
85067;SDS011;75403;44.574;2.080;2024-02-28T10:39:37;4.00;;;1.90;;
85067;SDS011;75403;44.574;2.080;2024-02-28T10:42:04;3.67;;;1.70;;
85067;SDS011;75403;44.574;2.080;2024-02-28T10:44:30;3.75;;;1.90;;
85067;SDS011;75403;44.574;2.080;2024-02-28T10:46:58;4.20;;;1.70;;
85067;SDS011;75403;44.574;2.080;2024-02-28T10:49:25;4.20;;;1.88;;
85067;SDS011;75403;44.574;2.080;2024-02-28T10:51:51;3.30;;;1.67;;
85067;SDS011;75403;44.574;2.080;2024-02-28T10:54:20;3.90;;;1.90;;
85067;SDS011;75403;44.574;2.080;2024-02-28T10:56:47;4.15;;;1.80;;
85067;SDS011;75403;44.574;2.080;2024-02-28T10:59:14;4.20;;;1.87;;
85067;SDS011;75403;44.574;2.080;2024-02-28T11:01:41;3.47;;;1.70;;
85067;SDS011;75403;44.574;2.080;2024-02-28T11:04:08;3.88;;;1.85;;
85067;SDS011;75403;44.574;2.080;2024-02-28T11:06:34;3.50;;;1.70;;
85067;SDS011;75403;44.574;2.080;2024-02-28T11:09:01;3.50;;;1.80;;
85067;SDS011;75403;44.574;2.080;2024-02-28T11:11:31;3.50;;;1.80;;
85067;SDS011;75403;44.574;2.080;2024-02-28T11:13:58;3.97;;;1.75;;
85067;SDS011;75403;44.574;2.080;2024-02-28T11:18:53;3.53;;;1.70;;
85067;SDS011;75403;44.574;2.080;2024-02-28T11:21:19;4.50;;;1.70;;
85067;SDS011;75403;44.574;2.080;2024-02-28T11:23:49;3.70;;;1.70;;
85067;SDS011;75403;44.574;2.080;2024-02-28T11:26:15;3.50;;;1.70;;
85067;SDS011;75403;44.574;2.080;2024-02-28T11:28:42;3.42;;;1.70;;
85067;SDS011;75403;44.574;2.080;2024-02-28T11:31:08;4.00;;;1.70;;
85067;SDS011;75403;44.574;2.080;2024-02-28T11:33:38;3.83;;;1.75;;
85067;SDS011;75403;44.574;2.080;2024-02-28T11:36:04;3.90;;;1.80;;
85067;SDS011;75403;44.574;2.080;2024-02-28T11:38:30;4.40;;;1.80;;
85067;SDS011;75403;44.574;2.080;2024-02-28T11:40:56;4.00;;;1.70;;
85067;SDS011;75403;44.574;2.080;2024-02-28T11:43:22;5.97;;;1.95;;
85067;SDS011;75403;44.574;2.080;2024-02-28T11:45:49;3.97;;;1.70;;
85067;SDS011;75403;44.574;2.080;2024-02-28T11:48:15;3.80;;;1.70;;
85067;SDS011;75403;44.574;2.080;2024-02-28T11:50:42;3.40;;;1.60;;
85067;SDS011;75403;44.574;2.080;2024-02-28T11:53:08;4.43;;;2.00;;
85067;SDS011;75403;44.574;2.080;2024-02-28T11:55:34;4.63;;;1.73;;
85067;SDS011;75403;44.574;2.080;2024-02-28T11:58:01;4.22;;;1.80;;
85067;SDS011;75403;44.574;2.080;2024-02-28T12:00:27;5.15;;;2.00;;
85067;SDS011;75403;44.574;2.080;2024-02-28T12:03:03;6.45;;;2.05;;
85067;SDS011;75403;44.574;2.080;2024-02-28T12:05:30;6.63;;;1.88;;
85067;SDS011;75403;44.574;2.080;2024-02-28T12:07:57;6.63;;;2.00;;
85067;SDS011;75403;44.574;2.080;2024-02-28T12:10:23;5.35;;;1.98;;
85067;SDS011;75403;44.574;2.080;2024-02-28T12:12:49;7.97;;;2.10;;
85067;SDS011;75403;44.574;2.080;2024-02-28T12:15:15;9.50;;;2.10;;
85067;SDS011;75403;44.574;2.080;2024-02-28T12:17:42;5.35;;;1.90;;
85067;SDS011;75403;44.574;2.080;2024-02-28T12:20:08;6.38;;;2.10;;
85067;SDS011;75403;44.574;2.080;2024-02-28T12:22:34;7.05;;;2.13;;
85067;SDS011;75403;44.574;2.080;2024-02-28T12:25:00;6.75;;;2.20;;
85067;SDS011;75403;44.574;2.080;2024-02-28T12:27:29;7.18;;;2.03;;
85067;SDS011;75403;44.574;2.080;2024-02-28T12:29:58;6.15;;;2.40;;
85067;SDS011;75403;44.574;2.080;2024-02-28T12:32:24;8.70;;;2.20;;
85067;SDS011;75403;44.574;2.080;2024-02-28T12:34:50;5.47;;;2.05;;
85067;SDS011;75403;44.574;2.080;2024-02-28T12:37:16;7.68;;;2.38;;
85067;SDS011;75403;44.574;2.080;2024-02-28T12:39:42;9.07;;;2.05;;
85067;SDS011;75403;44.574;2.080;2024-02-28T12:42:08;6.65;;;2.20;;
85067;SDS011;75403;44.574;2.080;2024-02-28T12:44:34;6.87;;;1.90;;
85067;SDS011;75403;44.574;2.080;2024-02-28T12:47:01;7.55;;;2.38;;
85067;SDS011;75403;44.574;2.080;2024-02-28T12:49:27;6.90;;;2.30;;
85067;SDS011;75403;44.574;2.080;2024-02-28T12:51:53;7.20;;;2.33;;
85067;SDS011;75403;44.574;2.080;2024-02-28T12:54:19;7.50;;;2.15;;
85067;SDS011;75403;44.574;2.080;2024-02-28T12:56:45;9.97;;;2.20;;
85067;SDS011;75403;44.574;2.080;2024-02-28T12:59:12;7.55;;;2.50;;
85067;SDS011;75403;44.574;2.080;2024-02-28T13:01:38;8.02;;;2.22;;
85067;SDS011;75403;44.574;2.080;2024-02-28T13:04:04;5.55;;;2.00;;
85067;SDS011;75403;44.574;2.080;2024-02-28T13:06:31;10.27;;;2.17;;
85067;SDS011;75403;44.574;2.080;2024-02-28T13:08:57;7.05;;;2.10;;
85067;SDS011;75403;44.574;2.080;2024-02-28T13:11:23;5.65;;;2.00;;
85067;SDS011;75403;44.574;2.080;2024-02-28T13:13:50;7.07;;;2.00;;
85067;SDS011;75403;44.574;2.080;2024-02-28T13:16:16;6.07;;;2.00;;
85067;SDS011;75403;44.574;2.080;2024-02-28T13:18:43;7.13;;;1.98;;
85067;SDS011;75403;44.574;2.080;2024-02-28T13:21:12;5.57;;;2.08;;
85067;SDS011;75403;44.574;2.080;2024-02-28T13:23:38;7.60;;;1.95;;
85067;SDS011;75403;44.574;2.080;2024-02-28T13:26:04;5.63;;;2.00;;
85067;SDS011;75403;44.574;2.080;2024-02-28T13:28:30;5.47;;;2.00;;
85067;SDS011;75403;44.574;2.080;2024-02-28T13:31:00;4.35;;;1.60;;
85067;SDS011;75403;44.574;2.080;2024-02-28T13:33:26;5.57;;;2.00;;
85067;SDS011;75403;44.574;2.080;2024-02-28T13:35:52;7.32;;;1.95;;
85067;SDS011;75403;44.574;2.080;2024-02-28T13:38:19;7.95;;;2.00;;
85067;SDS011;75403;44.574;2.080;2024-02-28T13:40:45;6.93;;;2.00;;
85067;SDS011;75403;44.574;2.080;2024-02-28T13:43:14;5.88;;;1.73;;
85067;SDS011;75403;44.574;2.080;2024-02-28T13:45:45;5.30;;;1.80;;
85067;SDS011;75403;44.574;2.080;2024-02-28T13:48:16;5.38;;;1.77;;
85067;SDS011;75403;44.574;2.080;2024-02-28T13:50:52;5.10;;;1.70;;
85067;SDS011;75403;44.574;2.080;2024-02-28T13:53:18;5.05;;;1.80;;
85067;SDS011;75403;44.574;2.080;2024-02-28T13:55:44;4.55;;;1.60;;
85067;SDS011;75403;44.574;2.080;2024-02-28T13:58:11;4.07;;;1.60;;
85067;SDS011;75403;44.574;2.080;2024-02-28T14:00:37;5.35;;;1.70;;
85067;SDS011;75403;44.574;2.080;2024-02-28T14:03:03;5.05;;;1.70;;
85067;SDS011;75403;44.574;2.080;2024-02-28T14:05:30;4.45;;;1.70;;
85067;SDS011;75403;44.574;2.080;2024-02-28T14:07:56;4.90;;;1.80;;
85067;SDS011;75403;44.574;2.080;2024-02-28T14:10:22;4.68;;;1.73;;
85067;SDS011;75403;44.574;2.080;2024-02-28T14:12:48;4.10;;;1.67;;
85067;SDS011;75403;44.574;2.080;2024-02-28T14:15:17;5.40;;;1.73;;
85067;SDS011;75403;44.574;2.080;2024-02-28T14:17:43;4.78;;;1.67;;
85067;SDS011;75403;44.574;2.080;2024-02-28T14:20:09;4.38;;;1.70;;
85067;SDS011;75403;44.574;2.080;2024-02-28T14:22:36;4.47;;;1.70;;
85067;SDS011;75403;44.574;2.080;2024-02-28T14:25:04;3.70;;;1.50;;
85067;SDS011;75403;44.574;2.080;2024-02-28T14:27:30;4.00;;;1.60;;
85067;SDS011;75403;44.574;2.080;2024-02-28T14:29:58;3.70;;;1.70;;
85067;SDS011;75403;44.574;2.080;2024-02-28T14:32:24;4.35;;;1.58;;
85067;SDS011;75403;44.574;2.080;2024-02-28T14:34:50;3.90;;;1.60;;
85067;SDS011;75403;44.574;2.080;2024-02-28T14:37:17;4.15;;;1.60;;
85067;SDS011;75403;44.574;2.080;2024-02-28T14:39:43;4.93;;;1.77;;
85067;SDS011;75403;44.574;2.080;2024-02-28T14:42:09;4.70;;;1.70;;
85067;SDS011;75403;44.574;2.080;2024-02-28T14:44:36;4.45;;;1.70;;